createdAt,value
2023-05-03T00:01:23.686Z,21.15
2023-05-03T00:03:53.785Z,20.95
2023-05-03T00:06:22.046Z,23.52
2023-05-03T00:08:49.125Z,25.92
2023-05-03T00:11:16.240Z,23.30
2023-05-03T00:13:43.690Z,32.60
2023-05-03T00:16:10.759Z,25.10
2023-05-03T00:18:37.967Z,25.35
2023-05-03T00:21:05.428Z,24.35
2023-05-03T00:23:32.748Z,23.77
2023-05-03T00:25:59.878Z,26.40
2023-05-03T00:28:27.078Z,21.17
2023-05-03T00:30:54.321Z,25.98
2023-05-03T00:33:21.402Z,25.70
2023-05-03T00:35:48.519Z,24.35
2023-05-03T00:38:15.764Z,21.75
2023-05-03T00:40:43.063Z,21.55
2023-05-03T00:43:12.188Z,23.10
2023-05-03T00:45:39.307Z,21.13
2023-05-03T00:48:06.517Z,22.25
2023-05-03T00:50:33.628Z,23.27
2023-05-03T00:53:01.299Z,22.05
2023-05-03T00:55:33.315Z,21.77
2023-05-03T00:58:00.498Z,23.90
2023-05-03T01:00:27.612Z,22.17
2023-05-03T01:02:54.966Z,23.52
2023-05-03T01:05:22.966Z,23.17
2023-05-03T01:08:03.008Z,23.27
2023-05-03T01:10:37.731Z,22.35
2023-05-03T01:13:04.854Z,22.85
2023-05-03T01:15:54.123Z,21.98
2023-05-03T01:18:23.801Z,22.95
2023-05-03T01:20:51.169Z,23.50
2023-05-03T01:23:28.356Z,24.20
2023-05-03T01:25:55.638Z,24.80
2023-05-03T01:28:22.709Z,23.38
2023-05-03T01:30:51.233Z,26.90
2023-05-03T01:33:25.053Z,25.95
2023-05-03T01:36:05.568Z,23.20
2023-05-03T01:38:34.318Z,24.45
2023-05-03T01:41:03.060Z,24.50
2023-05-03T01:43:33.294Z,23.80
2023-05-03T01:46:00.485Z,25.25
2023-05-03T01:48:27.537Z,25.65
2023-05-03T01:50:54.658Z,22.55
2023-05-03T01:53:21.720Z,23.48
2023-05-03T01:55:48.786Z,22.77
2023-05-03T01:58:16.060Z,24.25
2023-05-03T02:00:43.178Z,23.95
2023-05-03T02:03:10.320Z,24.25
2023-05-03T02:05:37.456Z,23.23
2023-05-03T02:08:04.542Z,23.00
2023-05-03T02:10:31.585Z,24.88
2023-05-03T02:12:58.803Z,24.40
2023-05-03T02:15:25.838Z,25.35
2023-05-03T02:17:54.207Z,24.10
2023-05-03T02:20:21.332Z,23.23
2023-05-03T02:22:48.373Z,23.15
2023-05-03T02:25:15.391Z,23.48
2023-05-03T02:27:42.417Z,23.30
2023-05-03T02:30:09.805Z,23.25
2023-05-03T02:32:36.864Z,25.58
2023-05-03T02:35:03.997Z,23.38
2023-05-03T02:37:31.111Z,23.48
2023-05-03T02:39:58.158Z,25.25
2023-05-03T02:42:25.264Z,22.20
2023-05-03T02:44:52.297Z,24.20
2023-05-03T02:47:19.354Z,25.02
2023-05-03T02:49:46.417Z,25.15
2023-05-03T02:52:13.439Z,22.63
2023-05-03T02:54:40.502Z,26.15
2023-05-03T02:57:07.610Z,25.10
2023-05-03T02:59:34.842Z,27.70
2023-05-03T03:02:01.891Z,24.17
2023-05-03T03:04:28.981Z,24.30
2023-05-03T03:06:56.699Z,25.27
2023-05-03T03:09:23.732Z,25.35
2023-05-03T03:11:53.963Z,25.83
2023-05-03T03:14:20.996Z,23.67
2023-05-03T03:16:47.616Z,27.30
2023-05-03T03:19:15.046Z,27.02
2023-05-03T03:21:41.669Z,25.23
2023-05-03T03:24:08.578Z,27.73
2023-05-03T03:26:35.463Z,28.40
2023-05-03T03:29:02.624Z,26.52
2023-05-03T03:31:29.774Z,29.17
2023-05-03T03:33:56.950Z,49.03
2023-05-03T03:36:24.029Z,82.28
2023-05-03T03:38:51.125Z,69.93
2023-05-03T03:41:19.999Z,101.13
2023-05-03T03:43:47.050Z,76.88
2023-05-03T03:46:14.080Z,109.03
2023-05-03T03:48:41.111Z,96.47
2023-05-03T03:51:08.170Z,91.18
2023-05-03T03:53:36.694Z,53.90
2023-05-03T03:56:03.713Z,95.63
2023-05-03T03:58:30.841Z,60.45
2023-05-03T04:00:58.006Z,120.72
2023-05-03T04:03:25.092Z,53.03
2023-05-03T04:05:52.203Z,37.38
2023-05-03T04:08:19.361Z,44.70
2023-05-03T04:10:46.368Z,78.50
2023-05-03T04:13:13.480Z,76.10
2023-05-03T04:15:40.511Z,50.63
2023-05-03T04:18:08.699Z,69.35
2023-05-03T04:20:36.743Z,84.57
2023-05-03T04:23:03.852Z,64.40
2023-05-03T04:25:32.068Z,111.55
2023-05-03T04:27:59.888Z,51.17
2023-05-03T04:30:26.964Z,62.80
2023-05-03T04:32:55.405Z,34.00
2023-05-03T04:35:22.546Z,73.00
2023-05-03T04:37:49.608Z,95.57
2023-05-03T04:40:19.625Z,61.05
2023-05-03T04:42:46.638Z,90.40
2023-05-03T04:45:14.518Z,84.45
2023-05-03T04:47:41.881Z,103.20
2023-05-03T04:50:10.966Z,65.72
2023-05-03T04:52:38.052Z,95.72
2023-05-03T04:55:05.529Z,41.40
2023-05-03T04:57:32.643Z,80.20
2023-05-03T04:59:59.706Z,85.60
2023-05-03T05:02:27.450Z,68.05
2023-05-03T05:04:54.785Z,109.47
2023-05-03T05:07:21.860Z,49.15
2023-05-03T05:09:48.896Z,162.02
2023-05-03T05:12:15.966Z,98.10
2023-05-03T05:14:43.128Z,35.13
2023-05-03T05:17:10.187Z,38.92
2023-05-03T05:19:37.239Z,30.80
2023-05-03T05:22:04.410Z,64.20
2023-05-03T05:24:31.452Z,70.10
2023-05-03T05:26:58.496Z,95.00
2023-05-03T05:29:25.556Z,119.40
2023-05-03T05:31:53.097Z,50.13
2023-05-03T05:34:20.433Z,82.32
2023-05-03T05:36:47.485Z,44.22
2023-05-03T05:39:14.581Z,68.65
2023-05-03T05:41:41.641Z,43.85
2023-05-03T05:44:08.674Z,60.65
2023-05-03T05:46:35.734Z,37.08
2023-05-03T05:49:02.846Z,35.05
2023-05-03T05:51:31.715Z,47.85
2023-05-03T05:53:58.776Z,51.50
2023-05-03T05:56:26.450Z,38.92
2023-05-03T05:58:53.549Z,51.58
2023-05-03T06:01:20.764Z,54.42
2023-05-03T06:03:47.816Z,74.97
2023-05-03T06:06:14.997Z,62.28
2023-05-03T06:08:42.164Z,68.90
2023-05-03T06:11:09.220Z,48.58
2023-05-03T06:13:38.473Z,43.63
2023-05-03T06:16:06.011Z,58.03
2023-05-03T06:18:33.122Z,58.67
2023-05-03T06:20:59.788Z,50.10
2023-05-03T06:23:28.090Z,69.78
2023-05-03T06:25:55.252Z,56.30
2023-05-03T06:28:22.264Z,38.03
2023-05-03T06:30:50.136Z,59.15
2023-05-03T06:33:17.280Z,41.58
2023-05-03T06:35:43.934Z,53.08
2023-05-03T06:38:11.957Z,55.00
2023-05-03T06:40:38.810Z,48.05
2023-05-03T06:43:05.574Z,53.83
2023-05-03T06:45:32.237Z,51.53
2023-05-03T06:47:59.128Z,73.25
2023-05-03T06:50:26.223Z,49.38
2023-05-03T06:52:53.645Z,51.28
2023-05-03T06:55:20.311Z,57.67
2023-05-03T06:57:52.220Z,60.00
2023-05-03T07:00:20.388Z,62.38
2023-05-03T07:02:47.127Z,59.13
2023-05-03T07:05:13.878Z,50.50
2023-05-03T07:07:40.545Z,49.15
2023-05-03T07:10:07.703Z,44.40
2023-05-03T07:12:34.341Z,47.15
2023-05-03T07:15:00.956Z,36.25
2023-05-03T07:17:27.722Z,39.53
2023-05-03T07:19:54.884Z,36.45
2023-05-03T07:22:24.711Z,37.15
2023-05-03T07:24:55.711Z,43.00
2023-05-03T07:27:22.787Z,39.92
2023-05-03T07:29:49.810Z,34.95
2023-05-03T07:32:17.048Z,36.38
2023-05-03T07:34:44.087Z,38.20
2023-05-03T07:37:11.200Z,41.38
2023-05-03T07:39:38.289Z,38.35
2023-05-03T07:42:05.305Z,36.67
2023-05-03T07:44:32.769Z,40.72
2023-05-03T07:46:59.357Z,38.85
2023-05-03T07:49:26.360Z,40.45
2023-05-03T07:51:53.469Z,40.08
2023-05-03T07:54:20.498Z,42.13
2023-05-03T07:56:47.087Z,43.85
2023-05-03T07:59:14.619Z,41.08
2023-05-03T08:01:41.706Z,43.42
2023-05-03T08:04:09.020Z,46.78
2023-05-03T08:06:36.369Z,45.17
2023-05-03T08:09:04.454Z,46.35
2023-05-03T08:11:31.229Z,45.65
2023-05-03T08:13:57.833Z,47.88
2023-05-03T08:16:24.608Z,44.03
2023-05-03T08:18:51.682Z,43.35
2023-05-03T08:21:19.179Z,39.40
2023-05-03T08:23:46.270Z,42.28
2023-05-03T08:26:14.551Z,39.63
2023-05-03T08:28:41.735Z,36.05
2023-05-03T08:31:08.745Z,37.00
2023-05-03T08:33:35.796Z,36.97
2023-05-03T08:36:02.959Z,39.97
2023-05-03T08:38:29.916Z,35.88
2023-05-03T08:40:59.610Z,39.97
2023-05-03T08:43:28.659Z,34.80
2023-05-03T08:45:55.503Z,34.10
2023-05-03T08:48:22.709Z,38.00
2023-05-03T08:50:52.716Z,36.92
2023-05-03T08:53:19.631Z,40.53
2023-05-03T08:55:46.332Z,34.90
2023-05-03T08:58:13.707Z,33.05
2023-05-03T09:00:44.814Z,32.83
2023-05-03T09:03:12.595Z,35.85
2023-05-03T09:05:41.182Z,32.55
2023-05-03T09:08:09.844Z,33.83
2023-05-03T09:10:40.769Z,36.25
2023-05-03T09:13:08.434Z,33.78
2023-05-03T09:15:36.000Z,32.55
2023-05-03T09:18:09.578Z,34.05
2023-05-03T09:20:37.742Z,35.88
2023-05-03T09:23:04.937Z,34.80
2023-05-03T09:25:41.957Z,38.15
2023-05-03T09:28:09.229Z,32.00
2023-05-03T09:30:36.909Z,32.05
2023-05-03T09:33:04.581Z,32.85
2023-05-03T09:35:34.719Z,33.63
2023-05-03T09:38:02.692Z,34.63
2023-05-03T09:40:30.021Z,31.85
2023-05-03T09:43:08.210Z,30.35
2023-05-03T09:45:38.813Z,33.30
2023-05-03T09:48:07.263Z,32.85
2023-05-03T09:50:37.316Z,36.20
2023-05-03T09:53:05.541Z,36.90
2023-05-03T09:55:41.802Z,33.80
2023-05-03T09:58:09.118Z,33.58
2023-05-03T10:00:40.368Z,32.05
2023-05-03T10:03:12.257Z,32.67
2023-05-03T10:05:49.510Z,38.15
2023-05-03T10:08:20.651Z,34.00
2023-05-03T10:10:48.956Z,30.08
2023-05-03T10:13:16.074Z,29.52
2023-05-03T10:15:44.110Z,27.25
2023-05-03T10:18:14.025Z,31.70
2023-05-03T10:20:44.610Z,32.90
2023-05-03T10:23:12.778Z,35.25
2023-05-03T10:25:41.103Z,33.67
2023-05-03T10:28:09.294Z,33.85
2023-05-03T10:30:40.403Z,32.22
2023-05-03T10:33:10.728Z,34.08
2023-05-03T10:35:40.186Z,31.65
2023-05-03T10:38:14.660Z,34.05
2023-05-03T10:40:43.265Z,31.63
2023-05-03T10:43:32.105Z,32.10
2023-05-03T10:45:59.898Z,33.03
2023-05-03T10:48:28.412Z,33.05
2023-05-03T10:50:55.896Z,33.83
2023-05-03T10:53:38.193Z,34.80
2023-05-03T10:56:10.970Z,35.05
2023-05-03T10:58:48.541Z,31.42
2023-05-03T11:01:16.914Z,32.65
2023-05-03T11:04:00.749Z,32.00
2023-05-03T11:06:32.561Z,31.85
2023-05-03T11:09:00.360Z,34.22
2023-05-03T11:11:27.528Z,32.65
2023-05-03T11:13:58.386Z,38.40
2023-05-03T11:16:25.914Z,35.08
2023-05-03T11:18:53.195Z,33.33
2023-05-03T11:21:21.065Z,32.47
2023-05-03T11:23:48.351Z,33.65
2023-05-03T11:26:16.273Z,31.63
2023-05-03T11:28:44.094Z,31.55
2023-05-03T11:31:12.650Z,31.70
2023-05-03T11:33:40.651Z,31.77
2023-05-03T11:36:09.658Z,28.30
2023-05-03T11:38:39.253Z,31.13
2023-05-03T11:41:14.078Z,30.20
2023-05-03T11:43:42.023Z,29.00
2023-05-03T11:46:09.457Z,31.02
2023-05-03T11:48:37.157Z,29.25
2023-05-03T11:51:08.492Z,28.90
2023-05-03T11:53:37.778Z,26.45
2023-05-03T11:56:07.320Z,27.98
2023-05-03T11:58:34.403Z,27.42
2023-05-03T12:01:01.567Z,27.17
2023-05-03T12:03:32.069Z,27.02
2023-05-03T12:06:01.833Z,27.00
2023-05-03T12:08:32.008Z,25.92
2023-05-03T12:11:03.098Z,28.27
2023-05-03T12:13:39.321Z,23.85
2023-05-03T12:16:12.858Z,23.23
2023-05-03T12:18:50.291Z,23.45
2023-05-03T12:23:50.562Z,21.70
2023-05-03T12:26:20.444Z,23.23
2023-05-03T12:28:48.653Z,23.90
2023-05-03T12:31:17.935Z,20.95
2023-05-03T12:34:00.868Z,21.50
2023-05-03T12:36:36.898Z,21.50
2023-05-03T12:39:08.684Z,22.55
2023-05-03T12:44:10.368Z,21.50
2023-05-03T12:46:38.963Z,21.38
2023-05-03T12:49:08.089Z,19.83
2023-05-03T12:51:36.321Z,19.75
2023-05-03T12:54:10.027Z,20.30
2023-05-03T12:59:39.199Z,16.90
2023-05-03T13:06:59.525Z,18.30
2023-05-03T13:09:37.955Z,17.30
2023-05-03T13:12:15.493Z,19.98
2023-05-03T13:14:42.817Z,16.40
2023-05-03T13:17:10.156Z,17.10
2023-05-03T13:19:37.597Z,18.05
2023-05-03T13:22:07.479Z,18.90
2023-05-03T13:24:34.803Z,16.70
2023-05-03T13:27:01.901Z,18.58
2023-05-03T13:29:29.123Z,16.00
2023-05-03T13:31:56.395Z,15.80
2023-05-03T13:34:23.564Z,16.77
2023-05-03T13:36:50.667Z,18.42
2023-05-03T13:39:18.992Z,16.67
2023-05-03T13:41:48.187Z,15.00
2023-05-03T13:44:15.506Z,16.27
2023-05-03T13:46:43.480Z,12.88
2023-05-03T13:49:10.818Z,15.20
2023-05-03T13:51:38.321Z,14.63
2023-05-03T13:54:06.064Z,14.40
2023-05-03T13:56:33.202Z,15.90
2023-05-03T13:59:00.425Z,17.98
2023-05-03T14:01:28.958Z,17.17
2023-05-03T14:03:56.513Z,16.08
2023-05-03T14:06:23.827Z,17.67
2023-05-03T14:08:51.234Z,17.13
2023-05-03T14:11:19.371Z,19.35
2023-05-03T14:13:56.348Z,15.32
2023-05-03T14:16:36.422Z,13.38
2023-05-03T14:19:07.407Z,13.70
2023-05-03T14:21:34.621Z,16.42
2023-05-03T14:24:01.858Z,13.73
2023-05-03T14:26:29.563Z,14.30
2023-05-03T14:28:57.007Z,13.75
2023-05-03T14:31:24.149Z,12.25
2023-05-03T14:33:51.238Z,13.15
2023-05-03T14:36:18.325Z,10.23
2023-05-03T14:38:46.051Z,9.18
2023-05-03T14:41:13.077Z,9.10
2023-05-03T14:43:40.135Z,10.68
2023-05-03T14:46:08.526Z,11.77
2023-05-03T14:48:35.692Z,9.57
2023-05-03T14:51:03.616Z,8.25
2023-05-03T14:53:30.998Z,6.47
2023-05-03T14:55:58.051Z,8.80
2023-05-03T14:58:25.173Z,7.05
2023-05-03T15:00:52.323Z,7.72
2023-05-03T15:03:19.535Z,9.80
2023-05-03T15:05:47.635Z,8.57
2023-05-03T15:08:15.239Z,8.27
2023-05-03T15:10:42.625Z,11.27
2023-05-03T15:13:10.204Z,10.23
2023-05-03T15:15:43.217Z,7.88
2023-05-03T15:18:10.924Z,8.32
2023-05-03T15:20:38.462Z,10.25
2023-05-03T15:23:06.128Z,10.68
2023-05-03T15:25:33.409Z,9.30
2023-05-03T15:28:03.835Z,11.60
2023-05-03T15:30:32.042Z,11.25
2023-05-03T15:32:59.229Z,12.90
2023-05-03T15:35:26.368Z,11.68
2023-05-03T15:37:53.405Z,12.23
2023-05-03T15:40:22.369Z,14.85
2023-05-03T15:42:51.707Z,14.00
2023-05-03T15:45:19.285Z,12.60
2023-05-03T15:47:46.637Z,10.98
2023-05-03T15:50:13.895Z,10.73
2023-05-03T15:52:42.268Z,10.98
2023-05-03T15:55:09.872Z,10.05
2023-05-03T15:57:37.188Z,12.30
2023-05-03T16:00:09.207Z,16.63
2023-05-03T16:02:36.352Z,13.75
2023-05-03T16:05:03.647Z,12.82
2023-05-03T16:07:30.870Z,11.50
2023-05-03T16:09:57.982Z,11.27
2023-05-03T16:12:25.237Z,11.52
2023-05-03T16:14:52.326Z,10.90
2023-05-03T16:17:19.402Z,13.80
2023-05-03T16:19:47.684Z,12.18
2023-05-03T16:22:14.838Z,13.10
2023-05-03T16:24:41.907Z,12.68
2023-05-03T16:27:09.113Z,13.63
2023-05-03T16:29:37.541Z,13.10
2023-05-03T16:32:06.118Z,12.80
2023-05-03T16:34:32.941Z,12.60
2023-05-03T16:37:00.437Z,14.52
2023-05-03T16:39:27.054Z,15.10
2023-05-03T16:41:53.621Z,15.20
2023-05-03T16:44:20.274Z,11.90
2023-05-03T16:46:47.756Z,13.95
2023-05-03T16:49:15.012Z,11.68
2023-05-03T16:51:41.734Z,13.07
2023-05-03T16:54:08.401Z,12.38
2023-05-03T16:56:35.186Z,11.25
2023-05-03T16:59:03.621Z,10.88
2023-05-03T17:01:30.857Z,11.85
2023-05-03T17:03:57.971Z,10.95
2023-05-03T17:06:24.974Z,11.75
2023-05-03T17:08:52.258Z,10.23
2023-05-03T17:11:19.298Z,14.35
2023-05-03T17:13:47.408Z,9.48
2023-05-03T17:16:15.640Z,9.95
2023-05-03T17:18:42.752Z,9.80
2023-05-03T17:21:10.432Z,12.00
2023-05-03T17:23:39.219Z,11.45
2023-05-03T17:26:08.305Z,12.80
2023-05-03T17:28:36.085Z,8.85
2023-05-03T17:31:03.670Z,10.02
2023-05-03T17:33:30.720Z,14.77
2023-05-03T17:36:00.569Z,13.30
2023-05-03T17:38:27.687Z,13.80
2023-05-03T17:40:54.752Z,13.52
2023-05-03T17:43:21.881Z,11.80
2023-05-03T17:45:49.006Z,11.95
2023-05-03T17:48:16.191Z,12.10
2023-05-03T17:50:43.333Z,12.73
2023-05-03T17:53:10.528Z,13.80
2023-05-03T17:55:38.342Z,12.60
2023-05-03T17:58:06.408Z,12.35
2023-05-03T18:00:33.918Z,14.80
2023-05-03T18:03:01.616Z,14.38
2023-05-03T18:05:33.907Z,13.65
2023-05-03T18:08:01.519Z,11.30
2023-05-03T18:10:28.563Z,14.18
2023-05-03T18:12:55.786Z,11.35
2023-05-03T18:15:24.987Z,11.48
2023-05-03T18:17:52.804Z,12.20
2023-05-03T18:20:20.081Z,12.80
2023-05-03T18:22:47.082Z,14.52
2023-05-03T18:25:14.150Z,12.40
2023-05-03T18:27:41.282Z,11.38
2023-05-03T18:30:09.073Z,14.07
2023-05-03T18:32:36.259Z,10.98
2023-05-03T18:35:03.771Z,12.63
2023-05-03T18:37:30.854Z,13.38
2023-05-03T18:39:57.929Z,14.23
2023-05-03T18:42:25.029Z,14.55
2023-05-03T18:44:52.052Z,12.27
2023-05-03T18:47:22.127Z,10.93
2023-05-03T18:49:52.582Z,13.55
2023-05-03T18:52:22.916Z,11.18
2023-05-03T18:54:49.831Z,12.80
2023-05-03T18:57:17.340Z,11.75
2023-05-03T18:59:56.679Z,17.30
2023-05-03T19:02:30.513Z,15.93
2023-05-03T19:04:58.039Z,15.80
2023-05-03T19:07:25.339Z,14.10
2023-05-03T19:09:56.266Z,16.42
2023-05-03T19:12:23.576Z,15.95
2023-05-03T19:14:50.729Z,15.80
2023-05-03T19:17:17.837Z,14.77
2023-05-03T19:19:45.080Z,17.50
2023-05-03T19:22:12.170Z,19.10
2023-05-03T19:24:39.825Z,16.67
2023-05-03T19:27:06.993Z,17.83
2023-05-03T19:29:34.055Z,16.70
2023-05-03T19:32:01.396Z,18.20
2023-05-03T19:34:28.417Z,22.23
2023-05-03T19:36:58.757Z,19.50
2023-05-03T19:39:26.064Z,18.95
2023-05-03T19:41:53.264Z,18.67
2023-05-03T19:44:20.469Z,18.65
2023-05-03T19:46:47.770Z,19.27
2023-05-03T19:49:15.005Z,19.55
2023-05-03T19:51:42.040Z,20.92
2023-05-03T19:54:09.130Z,18.17
2023-05-03T19:56:36.441Z,18.98
2023-05-03T19:59:03.755Z,21.25
2023-05-03T20:01:31.572Z,19.95
2023-05-03T20:03:58.797Z,19.85
2023-05-03T20:06:25.622Z,21.77
2023-05-03T20:08:52.742Z,21.92
2023-05-03T20:11:20.028Z,22.70
2023-05-03T20:13:47.326Z,22.00
2023-05-03T20:16:14.914Z,19.52
2023-05-03T20:18:42.617Z,21.92
2023-05-03T20:21:09.953Z,20.80
2023-05-03T20:23:37.565Z,23.73
2023-05-03T20:26:04.605Z,21.55
2023-05-03T20:28:32.532Z,20.50
2023-05-03T20:30:59.617Z,19.50
2023-05-03T20:33:26.734Z,20.83
2023-05-03T20:35:53.737Z,20.60
2023-05-03T20:38:20.419Z,23.50
2023-05-03T20:40:47.001Z,23.30
2023-05-03T20:43:13.941Z,20.85
2023-05-03T20:45:40.582Z,24.90
2023-05-03T20:48:07.913Z,23.30
2023-05-03T20:50:34.761Z,22.92
2023-05-03T20:53:01.515Z,24.42
2023-05-03T20:55:28.182Z,21.95
2023-05-03T20:57:54.838Z,25.58
2023-05-03T21:00:22.134Z,24.02
2023-05-03T21:02:54.174Z,22.65
2023-05-03T21:05:21.779Z,25.05
2023-05-03T21:07:48.532Z,20.00
2023-05-03T21:10:15.195Z,20.75
2023-05-03T21:12:41.837Z,19.80
2023-05-03T21:15:09.226Z,22.83
2023-05-03T21:17:36.253Z,20.52
2023-05-03T21:20:04.004Z,20.15
2023-05-03T21:22:31.193Z,21.38
2023-05-03T21:24:58.268Z,19.95
2023-05-03T21:27:25.329Z,21.05
2023-05-03T21:29:52.480Z,21.73
2023-05-03T21:32:19.685Z,20.08
2023-05-03T21:34:46.704Z,19.15
2023-05-03T21:37:13.730Z,21.55
2023-05-03T21:39:40.804Z,18.75
2023-05-03T21:42:07.823Z,20.67
2023-05-03T21:44:35.357Z,22.35
2023-05-03T21:47:02.911Z,21.52
2023-05-03T21:49:30.047Z,19.40
2023-05-03T21:51:57.062Z,20.48
2023-05-03T21:54:24.198Z,21.88
2023-05-03T21:56:51.215Z,22.90
2023-05-03T21:59:18.307Z,20.10
2023-05-03T22:01:45.351Z,19.38
2023-05-03T22:04:12.421Z,19.67
2023-05-03T22:06:39.787Z,18.70
2023-05-03T22:09:06.977Z,19.80
2023-05-03T22:11:34.454Z,20.35
2023-05-03T22:14:08.020Z,18.42
2023-05-03T22:16:37.379Z,22.33
2023-05-03T22:19:04.595Z,20.02
2023-05-03T22:21:31.932Z,20.63
2023-05-03T22:23:58.558Z,23.98
2023-05-03T22:26:25.667Z,21.48
2023-05-03T22:28:52.728Z,22.92
2023-05-03T22:31:19.791Z,23.73
2023-05-03T22:33:48.741Z,19.50
2023-05-03T22:36:16.113Z,21.58
2023-05-03T22:38:43.568Z,22.35
2023-05-03T22:41:11.164Z,22.13
2023-05-03T22:43:38.179Z,23.75
2023-05-03T22:46:05.276Z,24.33
2023-05-03T22:48:33.845Z,21.75
2023-05-03T22:51:00.914Z,26.85
2023-05-03T22:53:28.088Z,22.00
2023-05-03T22:55:56.104Z,24.83
2023-05-03T22:58:23.747Z,22.48
2023-05-03T23:00:50.771Z,22.75
2023-05-03T23:03:17.844Z,24.10
2023-05-03T23:05:44.965Z,24.77
2023-05-03T23:08:14.097Z,23.13
2023-05-03T23:10:41.407Z,26.58
2023-05-03T23:13:09.479Z,24.13
2023-05-03T23:15:37.540Z,22.48
2023-05-03T23:18:04.866Z,26.75
2023-05-03T23:20:32.029Z,28.52
2023-05-03T23:22:59.318Z,30.08
2023-05-03T23:25:26.757Z,23.58
2023-05-03T23:27:53.994Z,26.98
2023-05-03T23:30:21.611Z,23.70
2023-05-03T23:32:49.194Z,23.60
2023-05-03T23:35:16.912Z,24.48
2023-05-03T23:37:43.958Z,24.83
2023-05-03T23:40:12.838Z,22.42
2023-05-03T23:42:41.164Z,24.55
2023-05-03T23:45:09.603Z,26.65
2023-05-03T23:47:37.146Z,27.17
2023-05-03T23:50:04.555Z,24.60
2023-05-03T23:52:31.969Z,27.20
2023-05-03T23:54:59.046Z,24.77
2023-05-03T23:57:26.651Z,26.45
2023-05-03T23:59:53.810Z,24.98
